createdAt,value
2018-06-08T00:01:44.324Z,7.80
2018-06-08T00:04:17.906Z,9.03
2018-06-08T00:06:46.840Z,6.13
2018-06-08T00:09:15.588Z,6.40
2018-06-08T00:11:44.084Z,8.53
2018-06-08T00:14:14.914Z,10.30
2018-06-08T00:16:43.879Z,6.00
2018-06-08T00:19:12.810Z,10.57
2018-06-08T00:21:41.907Z,9.03
2018-06-08T00:24:10.727Z,11.70
2018-06-08T00:26:39.635Z,11.50
2018-06-08T00:29:08.443Z,9.67
2018-06-08T00:31:37.020Z,8.57
2018-06-08T00:34:05.503Z,8.50
2018-06-08T00:36:34.574Z,7.20
2018-06-08T00:39:03.279Z,9.77
2018-06-08T00:41:32.918Z,10.80
2018-06-08T00:44:01.523Z,13.60
2018-06-08T00:46:30.662Z,13.23
2018-06-08T00:48:59.301Z,10.03
2018-06-08T00:51:28.126Z,11.37
2018-06-08T00:53:56.651Z,11.40
2018-06-08T00:56:30.832Z,15.10
2018-06-08T00:58:59.383Z,22.27
2018-06-08T01:01:27.941Z,21.20
2018-06-08T01:03:56.764Z,23.10
2018-06-08T01:06:25.195Z,18.57
2018-06-08T01:08:53.894Z,21.53
2018-06-08T01:11:22.980Z,29.03
2018-06-08T01:13:51.567Z,19.23
2018-06-08T01:16:19.993Z,22.30
2018-06-08T01:18:49.652Z,17.60
2018-06-08T01:21:18.444Z,23.27
2018-06-08T01:23:46.996Z,28.67
2018-06-08T01:26:15.509Z,27.87
2018-06-08T01:28:44.094Z,25.00
2018-06-08T01:31:13.320Z,23.30
2018-06-08T01:33:41.886Z,20.20
2018-06-08T01:36:10.663Z,23.03
2018-06-08T01:38:39.571Z,20.30
2018-06-08T01:41:08.146Z,21.03
2018-06-08T01:43:37.148Z,27.40
2018-06-08T01:46:06.226Z,21.30
2018-06-08T01:48:34.746Z,22.20
2018-06-08T01:51:03.407Z,23.43
2018-06-08T01:53:31.978Z,20.67
2018-06-08T01:56:00.779Z,24.53
2018-06-08T01:58:29.391Z,24.93
2018-06-08T02:00:58.824Z,20.40
2018-06-08T02:03:28.173Z,29.93
2018-06-08T02:05:57.159Z,25.07
2018-06-08T02:08:25.747Z,22.73
2018-06-08T02:10:54.279Z,29.43
2018-06-08T02:13:22.944Z,32.37
2018-06-08T02:15:51.945Z,31.27
2018-06-08T02:18:20.517Z,18.70
2018-06-08T02:20:49.099Z,20.13
2018-06-08T02:23:17.663Z,21.43
2018-06-08T02:25:46.165Z,18.13
2018-06-08T02:28:14.647Z,14.37
2018-06-08T02:30:44.367Z,17.73
2018-06-08T02:33:13.114Z,14.87
2018-06-08T02:35:42.642Z,17.27
2018-06-08T02:38:11.323Z,19.40
2018-06-08T02:40:40.038Z,14.97
2018-06-08T02:43:08.517Z,14.50
2018-06-08T02:45:37.168Z,16.20
2018-06-08T02:48:06.215Z,23.63
2018-06-08T02:50:35.278Z,18.70
2018-06-08T02:53:04.176Z,14.67
2018-06-08T02:55:32.695Z,17.30
2018-06-08T02:58:01.677Z,18.93
2018-06-08T03:00:30.637Z,16.47
2018-06-08T03:02:59.091Z,19.10
2018-06-08T03:05:28.455Z,16.90
2018-06-08T03:07:57.189Z,21.30
2018-06-08T03:10:25.887Z,23.80
2018-06-08T03:12:54.621Z,21.30
2018-06-08T03:15:23.776Z,21.33
2018-06-08T03:17:55.956Z,22.17
2018-06-08T03:20:25.104Z,30.07
2018-06-08T03:22:53.601Z,25.23
2018-06-08T03:25:22.760Z,31.40
2018-06-08T03:27:51.216Z,28.53
2018-06-08T03:30:19.940Z,29.23
2018-06-08T03:32:48.580Z,22.93
2018-06-08T03:35:17.631Z,27.13
2018-06-08T03:37:46.107Z,22.90
2018-06-08T03:40:14.797Z,24.50
2018-06-08T03:42:43.785Z,23.50
2018-06-08T03:45:12.296Z,20.47
2018-06-08T03:47:40.799Z,22.10
2018-06-08T03:50:10.322Z,28.03
2018-06-08T03:52:38.956Z,23.83
2018-06-08T03:55:07.628Z,22.90
2018-06-08T03:57:36.578Z,23.33
2018-06-08T04:00:06.142Z,21.23
2018-06-08T04:02:35.751Z,19.03
2018-06-08T04:05:04.417Z,19.60
2018-06-08T04:07:32.837Z,18.83
2018-06-08T04:10:01.762Z,20.00
2018-06-08T04:12:30.334Z,15.83
2018-06-08T04:14:58.749Z,19.17
2018-06-08T04:17:27.364Z,18.30
2018-06-08T04:19:56.001Z,18.50
2018-06-08T04:22:32.574Z,20.30
2018-06-08T04:25:01.285Z,23.47
2018-06-08T04:27:30.143Z,21.30
2018-06-08T04:29:59.091Z,19.90
2018-06-08T04:32:28.014Z,17.47
2018-06-08T04:34:57.301Z,14.87
2018-06-08T04:37:25.937Z,13.93
2018-06-08T04:39:54.565Z,15.90
2018-06-08T04:42:23.423Z,17.80
2018-06-08T04:44:51.873Z,20.83
2018-06-08T04:47:20.678Z,17.43
2018-06-08T04:49:49.653Z,17.20
2018-06-08T04:52:18.600Z,14.43
2018-06-08T04:54:47.088Z,19.23
2018-06-08T04:57:16.150Z,15.17
2018-06-08T04:59:44.712Z,13.50
2018-06-08T05:02:13.742Z,14.30
2018-06-08T05:04:42.922Z,11.60
2018-06-08T05:07:11.799Z,18.73
2018-06-08T05:09:40.748Z,17.07
2018-06-08T05:12:10.397Z,14.67
2018-06-08T05:14:39.565Z,20.43
2018-06-08T05:17:08.117Z,15.27
2018-06-08T05:19:36.638Z,19.50
2018-06-08T05:22:07.010Z,18.90
2018-06-08T05:24:35.785Z,13.80
2018-06-08T05:27:05.357Z,15.13
2018-06-08T05:29:34.131Z,13.60
2018-06-08T05:32:02.668Z,16.00
2018-06-08T05:34:31.197Z,18.63
2018-06-08T05:36:59.752Z,23.17
2018-06-08T05:39:28.265Z,19.33
2018-06-08T05:41:56.745Z,16.13
2018-06-08T05:44:25.213Z,14.30
2018-06-08T05:46:54.264Z,17.40
2018-06-08T05:49:22.815Z,22.80
2018-06-08T05:51:51.459Z,19.30
2018-06-08T05:54:19.938Z,14.17
2018-06-08T05:56:48.406Z,14.33
2018-06-08T05:59:16.911Z,14.03
2018-06-08T06:01:45.840Z,14.40
2018-06-08T06:04:29.069Z,15.23
2018-06-08T06:06:58.552Z,19.80
2018-06-08T06:09:33.898Z,17.83
2018-06-08T06:12:09.105Z,19.67
2018-06-08T06:14:37.514Z,17.97
2018-06-08T06:17:06.425Z,15.80
2018-06-08T06:19:34.991Z,15.00
2018-06-08T06:22:03.551Z,14.70
2018-06-08T06:24:32.002Z,21.07
2018-06-08T06:27:00.572Z,18.90
2018-06-08T06:29:49.959Z,16.90
2018-06-08T06:32:19.176Z,24.40
2018-06-08T06:34:47.522Z,13.40
2018-06-08T06:37:16.339Z,17.37
2018-06-08T06:39:44.675Z,23.53
2018-06-08T06:42:13.055Z,20.53
2018-06-08T06:44:41.451Z,19.00
2018-06-08T06:47:09.785Z,14.53
2018-06-08T06:49:38.179Z,13.77
2018-06-08T06:52:06.509Z,12.67
2018-06-08T06:54:34.902Z,13.17
2018-06-08T06:57:03.315Z,17.00
2018-06-08T06:59:31.685Z,24.00
2018-06-08T07:02:00.106Z,17.50
2018-06-08T07:04:28.561Z,14.33
2018-06-08T07:06:57.019Z,16.97
2018-06-08T07:09:25.399Z,14.70
2018-06-08T07:11:53.774Z,14.07
2018-06-08T07:14:22.240Z,12.73
2018-06-08T07:16:50.717Z,13.70
2018-06-08T07:19:19.190Z,18.03
2018-06-08T07:21:48.525Z,17.73
2018-06-08T07:24:17.307Z,17.40
2018-06-08T07:26:45.874Z,22.23
2018-06-08T07:29:14.355Z,19.10
2018-06-08T07:31:42.897Z,17.57
2018-06-08T07:34:11.738Z,14.80
2018-06-08T07:36:40.087Z,14.53
2018-06-08T07:39:08.842Z,15.97
2018-06-08T07:41:37.357Z,14.33
2018-06-08T07:44:05.856Z,15.07
2018-06-08T07:46:34.254Z,16.23
2018-06-08T07:49:02.628Z,14.13
2018-06-08T07:51:31.482Z,16.10
2018-06-08T07:53:59.952Z,14.40
2018-06-08T07:56:28.308Z,14.33
2018-06-08T07:58:56.687Z,16.17
2018-06-08T08:01:25.050Z,15.33
2018-06-08T08:03:53.436Z,12.07
2018-06-08T08:06:21.810Z,12.63
2018-06-08T08:08:50.150Z,55.47
2018-06-08T08:11:18.725Z,16.67
2018-06-08T08:13:47.090Z,22.10
2018-06-08T08:16:15.439Z,16.00
2018-06-08T08:18:43.796Z,20.17
2018-06-08T08:21:12.240Z,19.13
2018-06-08T08:23:40.646Z,21.60
2018-06-08T08:26:09.041Z,18.67
2018-06-08T08:28:37.420Z,17.70
2018-06-08T08:31:05.798Z,14.77
2018-06-08T08:33:34.163Z,17.00
2018-06-08T08:36:02.549Z,13.83
2018-06-08T08:38:30.961Z,12.73
2018-06-08T08:40:59.343Z,14.03
2018-06-08T08:43:27.716Z,13.77
2018-06-08T08:45:56.095Z,16.60
2018-06-08T08:48:24.437Z,14.80
2018-06-08T08:50:53.583Z,13.20
2018-06-08T08:53:21.982Z,15.47
2018-06-08T08:55:50.407Z,14.20
2018-06-08T08:58:18.886Z,14.80
2018-06-08T09:00:47.329Z,12.73
2018-06-08T09:03:15.723Z,17.80
2018-06-08T09:05:44.243Z,15.90
2018-06-08T09:08:12.583Z,18.03
2018-06-08T09:10:40.986Z,16.50
2018-06-08T09:13:09.339Z,15.50
2018-06-08T09:15:37.752Z,13.50
2018-06-08T09:18:06.124Z,13.83
2018-06-08T09:20:34.529Z,16.10
2018-06-08T09:23:02.971Z,13.53
2018-06-08T09:25:31.341Z,12.60
2018-06-08T09:27:59.684Z,12.20
2018-06-08T09:30:28.083Z,18.37
2018-06-08T09:32:56.439Z,13.30
2018-06-08T09:35:24.966Z,11.30
2018-06-08T09:37:53.329Z,11.53
2018-06-08T09:40:21.699Z,12.87
2018-06-08T09:42:49.999Z,10.83
2018-06-08T09:45:18.331Z,12.60
2018-06-08T09:47:46.640Z,10.80
2018-06-08T09:50:14.944Z,10.63
2018-06-08T09:52:43.304Z,11.00
2018-06-08T09:55:11.716Z,9.93
2018-06-08T09:57:40.032Z,11.13
2018-06-08T10:00:08.353Z,13.30
2018-06-08T10:02:36.769Z,10.43
2018-06-08T10:05:05.175Z,10.40
2018-06-08T10:07:33.519Z,11.43
2018-06-08T10:10:01.829Z,10.73
2018-06-08T10:12:30.241Z,10.43
2018-06-08T10:14:58.594Z,12.13
2018-06-08T10:17:27.098Z,11.17
2018-06-08T10:19:55.579Z,11.00
2018-06-08T10:22:23.951Z,9.67
2018-06-08T10:24:52.288Z,9.13
2018-06-08T10:27:20.723Z,8.93
2018-06-08T10:29:49.099Z,10.50
2018-06-08T10:32:17.501Z,10.53
2018-06-08T10:34:45.841Z,8.87
2018-06-08T10:37:14.247Z,9.73
2018-06-08T10:39:42.589Z,9.23
2018-06-08T10:42:11.020Z,9.43
2018-06-08T10:44:39.363Z,9.17
2018-06-08T10:47:07.708Z,9.50
2018-06-08T10:49:36.181Z,10.40
2018-06-08T10:52:04.567Z,8.57
2018-06-08T10:54:32.906Z,13.83
2018-06-08T10:57:01.249Z,7.80
2018-06-08T10:59:29.651Z,7.47
2018-06-08T11:01:58.045Z,8.70
2018-06-08T11:04:26.375Z,7.00
2018-06-08T11:06:55.166Z,8.03
2018-06-08T11:09:23.551Z,8.80
2018-06-08T11:11:51.997Z,7.40
2018-06-08T11:14:20.376Z,6.50
2018-06-08T11:16:48.763Z,6.97
2018-06-08T11:19:17.141Z,8.33
2018-06-08T11:21:45.479Z,8.00
2018-06-08T11:24:16.974Z,7.07
2018-06-08T11:26:45.620Z,9.43
2018-06-08T11:29:14.353Z,7.03
2018-06-08T11:31:42.733Z,8.23
2018-06-08T11:34:11.172Z,9.17
2018-06-08T11:36:43.455Z,11.13
2018-06-08T11:39:11.851Z,9.27
2018-06-08T11:41:40.376Z,10.87
2018-06-08T11:44:08.738Z,9.77
2018-06-08T11:46:37.153Z,9.93
2018-06-08T11:49:05.809Z,8.17
2018-06-08T11:51:34.170Z,9.27
2018-06-08T11:54:02.981Z,10.37
2018-06-08T11:56:31.295Z,8.27
2018-06-08T11:58:59.864Z,10.63
2018-06-08T12:02:52.631Z,8.50
2018-06-08T12:05:20.976Z,11.43
2018-06-08T12:07:49.366Z,10.07
2018-06-08T12:10:17.753Z,8.60
2018-06-08T12:12:46.176Z,8.73
2018-06-08T12:15:14.584Z,10.40
2018-06-08T12:17:43.267Z,11.73
2018-06-08T12:20:11.989Z,10.30
2018-06-08T12:22:40.378Z,11.43
2018-06-08T12:25:08.707Z,9.20
2018-06-08T12:27:37.706Z,10.20
2018-06-08T12:30:06.065Z,16.97
2018-06-08T12:32:34.444Z,11.03
2018-06-08T12:35:02.834Z,10.90
2018-06-08T12:37:31.217Z,11.30
2018-06-08T12:39:59.617Z,10.27
2018-06-08T12:42:27.994Z,10.90
2018-06-08T12:44:56.366Z,9.67
2018-06-08T12:47:24.755Z,10.40
2018-06-08T12:49:53.109Z,8.53
2018-06-08T12:52:21.474Z,9.80
2018-06-08T12:54:49.888Z,9.87
2018-06-08T12:57:18.263Z,8.47
2018-06-08T12:59:46.735Z,9.53
2018-06-08T13:02:15.198Z,9.70
2018-06-08T13:04:43.559Z,9.90
2018-06-08T13:07:11.958Z,10.33
2018-06-08T13:09:40.415Z,11.13
2018-06-08T13:12:08.847Z,9.30
2018-06-08T13:14:37.254Z,10.10
2018-06-08T13:17:05.680Z,9.20
2018-06-08T13:19:34.075Z,14.07
2018-06-08T13:22:02.429Z,8.57
2018-06-08T13:24:30.928Z,9.53
2018-06-08T13:26:59.307Z,9.43
2018-06-08T13:29:27.709Z,10.00
2018-06-08T13:31:56.153Z,11.00
2018-06-08T13:34:24.582Z,9.70
2018-06-08T13:36:52.991Z,9.23
2018-06-08T13:39:21.379Z,10.23
2018-06-08T13:41:49.780Z,9.60
2018-06-08T13:44:18.277Z,10.67
2018-06-08T13:46:47.328Z,11.80
2018-06-08T13:49:15.710Z,9.40
2018-06-08T13:51:44.094Z,9.43
2018-06-08T13:54:12.551Z,9.70
2018-06-08T13:56:40.880Z,8.97
2018-06-08T13:59:09.232Z,10.90
2018-06-08T14:01:37.680Z,8.73
2018-06-08T14:04:06.037Z,10.13
2018-06-08T14:06:34.425Z,9.40
2018-06-08T14:09:02.917Z,9.00
2018-06-08T14:11:31.304Z,9.77
2018-06-08T14:13:59.710Z,11.47
2018-06-08T14:16:28.097Z,11.07
2018-06-08T14:18:56.513Z,9.07
2018-06-08T14:21:24.948Z,10.00
2018-06-08T14:23:53.286Z,7.80
2018-06-08T14:26:21.829Z,8.80
2018-06-08T14:28:50.223Z,8.50
2018-06-08T14:31:18.642Z,8.47
2018-06-08T14:33:47.077Z,10.50
2018-06-08T14:36:15.434Z,5.20
2018-06-08T14:38:43.861Z,5.60
2018-06-08T14:41:12.290Z,9.30
2018-06-08T14:43:40.671Z,5.97
2018-06-08T14:46:09.067Z,8.20
2018-06-08T14:48:37.371Z,5.20
2018-06-08T14:51:05.750Z,5.20
2018-06-08T14:53:34.124Z,5.20
2018-06-08T14:56:02.461Z,8.57
2018-06-08T14:58:30.881Z,5.87
2018-06-08T15:01:00.260Z,9.13
2018-06-08T15:03:28.710Z,7.60
2018-06-08T15:05:57.302Z,8.90
2018-06-08T15:08:25.659Z,6.77
2018-06-08T15:10:54.079Z,11.33
2018-06-08T15:13:22.486Z,7.23
2018-06-08T15:15:50.923Z,7.70
2018-06-08T15:18:19.439Z,7.53
2018-06-08T15:20:47.733Z,11.47
2018-06-08T15:23:16.735Z,8.27
2018-06-08T15:25:45.116Z,8.10
2018-06-08T15:28:13.434Z,8.93
2018-06-08T15:30:41.748Z,10.90
2018-06-08T15:33:10.086Z,8.10
2018-06-08T15:35:38.536Z,8.90
2018-06-08T15:38:06.862Z,11.37
2018-06-08T15:40:35.262Z,8.30
2018-06-08T15:43:03.608Z,12.17
2018-06-08T15:45:31.940Z,8.60
2018-06-08T15:48:00.313Z,11.97
2018-06-08T15:50:28.795Z,8.07
2018-06-08T15:52:57.130Z,13.23
2018-06-08T15:55:25.506Z,11.67
2018-06-08T15:57:53.914Z,9.57
2018-06-08T16:00:22.277Z,10.17
2018-06-08T16:02:50.789Z,12.50
2018-06-08T16:05:19.124Z,11.57
2018-06-08T16:07:47.559Z,14.47
2018-06-08T16:10:15.943Z,14.03
2018-06-08T16:12:44.516Z,19.60
2018-06-08T16:15:12.902Z,13.97
2018-06-08T16:17:41.284Z,15.40
2018-06-08T16:20:09.583Z,14.47
2018-06-08T16:22:37.990Z,18.60
2018-06-08T16:25:06.250Z,15.07
2018-06-08T16:27:34.661Z,14.97
2018-06-08T16:30:03.044Z,13.77
2018-06-08T16:32:31.347Z,12.30
2018-06-08T16:34:59.784Z,13.63
2018-06-08T16:37:28.131Z,18.33
2018-06-08T16:39:56.394Z,15.90
2018-06-08T16:42:24.719Z,14.93
2018-06-08T16:44:53.053Z,14.77
2018-06-08T16:47:21.455Z,14.20
2018-06-08T16:49:49.803Z,14.60
2018-06-08T16:52:18.178Z,20.93
2018-06-08T16:54:46.583Z,15.00
2018-06-08T16:57:14.962Z,21.13
2018-06-08T16:59:43.349Z,11.80
2018-06-08T17:02:11.688Z,9.80
2018-06-08T17:04:39.976Z,9.80
2018-06-08T17:07:08.296Z,9.90
2018-06-08T17:09:36.628Z,12.10
2018-06-08T17:12:04.934Z,13.17
2018-06-08T17:14:33.220Z,16.80
2018-06-08T17:17:07.655Z,13.03
2018-06-08T17:19:35.982Z,12.10
2018-06-08T17:22:04.656Z,10.43
2018-06-08T17:24:32.937Z,14.50
2018-06-08T17:27:01.255Z,13.57
2018-06-08T17:29:33.276Z,12.33
2018-06-08T17:32:02.678Z,11.63
2018-06-08T17:34:31.178Z,14.60
2018-06-08T17:37:00.164Z,12.00
2018-06-08T17:39:28.522Z,13.77
2018-06-08T17:41:56.819Z,12.50
2018-06-08T17:44:25.444Z,14.97
2018-06-08T17:46:54.067Z,12.30
2018-06-08T17:49:22.783Z,13.00
2018-06-08T17:51:51.288Z,12.57
2018-06-08T17:54:19.734Z,11.57
2018-06-08T17:56:48.116Z,17.03
2018-06-08T17:59:17.043Z,13.20
2018-06-08T18:01:45.476Z,15.43
2018-06-08T18:04:13.969Z,15.47
2018-06-08T18:06:42.385Z,19.40
2018-06-08T18:09:10.794Z,14.10
2018-06-08T18:11:39.331Z,19.93
2018-06-08T18:14:07.718Z,19.07
2018-06-08T18:16:36.081Z,16.10
2018-06-08T18:19:04.538Z,19.63
2018-06-08T18:21:32.900Z,15.20
2018-06-08T18:24:03.208Z,16.23
2018-06-08T18:26:31.715Z,16.53
2018-06-08T18:29:00.245Z,18.87
2018-06-08T18:31:28.583Z,18.50
2018-06-08T18:33:56.922Z,13.90
2018-06-08T18:36:25.281Z,16.23
2018-06-08T18:38:53.816Z,19.60
2018-06-08T18:41:22.174Z,13.70
2018-06-08T18:43:50.592Z,15.07
2018-06-08T18:46:19.196Z,16.53
2018-06-08T18:48:47.542Z,16.30
2018-06-08T18:51:16.068Z,18.63
2018-06-08T18:53:44.470Z,13.80
2018-06-08T18:56:12.923Z,20.00
2018-06-08T18:58:41.362Z,16.40
2018-06-08T19:01:10.631Z,16.27
2018-06-08T19:03:38.953Z,17.27
2018-06-08T19:06:07.401Z,16.83
2018-06-08T19:08:35.898Z,14.00
2018-06-08T19:11:04.309Z,17.40
2018-06-08T19:13:32.841Z,21.60
2018-06-08T19:16:01.559Z,19.13
2018-06-08T19:18:29.933Z,20.00
2018-06-08T19:20:58.288Z,21.07
2018-06-08T19:23:26.671Z,25.23
2018-06-08T19:25:55.036Z,18.70
2018-06-08T19:28:33.062Z,17.27
2018-06-08T19:31:01.587Z,19.03
2018-06-08T19:33:30.327Z,12.60
2018-06-08T19:35:58.704Z,16.97
2018-06-08T19:38:27.351Z,14.37
2018-06-08T19:40:56.411Z,13.27
2018-06-08T19:43:24.850Z,15.03
2018-06-08T19:45:53.340Z,15.27
2018-06-08T19:48:21.763Z,14.83
2018-06-08T19:50:50.107Z,14.50
2018-06-08T19:53:18.474Z,16.00
2018-06-08T19:55:46.792Z,15.20
2018-06-08T19:58:15.182Z,17.70
2018-06-08T20:00:43.566Z,15.40
2018-06-08T20:03:11.950Z,12.90
2018-06-08T20:05:40.279Z,12.67
2018-06-08T20:08:08.628Z,12.30
2018-06-08T20:10:37.015Z,16.37
2018-06-08T20:13:05.365Z,12.30
2018-06-08T20:15:33.762Z,15.33
2018-06-08T20:18:02.080Z,18.53
2018-06-08T20:20:30.596Z,17.90
2018-06-08T20:22:58.907Z,16.63
2018-06-08T20:25:27.221Z,15.20
2018-06-08T20:27:55.523Z,16.50
2018-06-08T20:30:23.874Z,17.63
2018-06-08T20:32:52.176Z,18.80
2018-06-08T20:35:20.529Z,13.43
2018-06-08T20:37:48.862Z,14.60
2018-06-08T20:40:17.395Z,22.43
2018-06-08T20:42:46.359Z,15.20
2018-06-08T20:45:15.540Z,15.23
2018-06-08T20:47:44.419Z,17.70
2018-06-08T20:50:15.662Z,13.57
2018-06-08T20:52:45.427Z,12.97
2018-06-08T20:55:13.848Z,11.90
2018-06-08T20:57:47.861Z,12.80
2018-06-08T21:00:16.243Z,20.13
2018-06-08T21:02:44.636Z,13.90
2018-06-08T21:05:12.999Z,14.03
2018-06-08T21:07:41.394Z,12.83
2018-06-08T21:10:09.728Z,15.37
2018-06-08T21:12:38.105Z,13.00
2018-06-08T21:15:06.436Z,18.93
2018-06-08T21:17:34.797Z,13.67
2018-06-08T21:20:03.216Z,15.30
2018-06-08T21:22:31.580Z,10.67
2018-06-08T21:25:00.057Z,14.70
2018-06-08T21:27:28.432Z,15.93
2018-06-08T21:29:56.817Z,11.47
2018-06-08T21:32:25.300Z,10.60
2018-06-08T21:34:53.617Z,11.67
2018-06-08T21:37:21.919Z,12.17
2018-06-08T21:39:50.361Z,12.63
2018-06-08T21:42:21.173Z,13.17
2018-06-08T21:47:33.402Z,14.40
2018-06-08T21:50:01.829Z,15.33
2018-06-08T21:52:31.241Z,13.10
2018-06-08T21:54:59.627Z,12.13
2018-06-08T21:57:28.016Z,10.50
2018-06-08T21:59:56.445Z,10.07
2018-06-08T22:02:24.795Z,13.40
2018-06-08T22:04:58.735Z,16.60
2018-06-08T22:07:27.157Z,13.47
2018-06-08T22:09:55.503Z,14.00
2018-06-08T22:12:23.843Z,12.43
2018-06-08T22:14:52.308Z,11.93
2018-06-08T22:17:20.650Z,12.23
2018-06-08T22:19:49.051Z,13.70
2018-06-08T22:22:17.429Z,15.00
2018-06-08T22:24:45.877Z,18.20
2018-06-08T22:27:15.331Z,12.77
2018-06-08T22:29:43.678Z,14.63
2018-06-08T22:32:12.043Z,13.07
2018-06-08T22:34:40.389Z,26.30
2018-06-08T22:37:08.738Z,16.60
2018-06-08T22:39:37.896Z,17.90
2018-06-08T22:42:06.276Z,13.83
2018-06-08T22:44:34.753Z,17.33
2018-06-08T22:47:03.094Z,14.93
2018-06-08T22:49:31.805Z,14.40
2018-06-08T22:52:00.127Z,15.80
2018-06-08T22:54:28.539Z,13.70
2018-06-08T22:56:56.914Z,15.97
2018-06-08T22:59:25.262Z,13.03
2018-06-08T23:01:53.551Z,13.50
2018-06-08T23:04:21.956Z,13.23
2018-06-08T23:06:50.259Z,12.60
2018-06-08T23:09:18.605Z,12.70
2018-06-08T23:11:46.976Z,17.00
2018-06-08T23:14:15.285Z,14.97
2018-06-08T23:16:43.651Z,18.20
2018-06-08T23:19:11.959Z,22.33
2018-06-08T23:21:41.346Z,17.00
2018-06-08T23:24:09.635Z,18.60
2018-06-08T23:26:38.076Z,16.97
2018-06-08T23:29:08.327Z,17.03
2018-06-08T23:31:39.230Z,18.47
2018-06-08T23:34:08.404Z,18.00
2018-06-08T23:36:40.864Z,16.30
2018-06-08T23:39:12.494Z,14.63
2018-06-08T23:41:43.664Z,14.93
2018-06-08T23:44:12.564Z,16.77
2018-06-08T23:46:41.310Z,18.07
2018-06-08T23:49:10.817Z,19.37
2018-06-08T23:51:39.262Z,15.03
2018-06-08T23:54:07.582Z,17.00
2018-06-08T23:56:36.001Z,25.07
2018-06-08T23:59:04.478Z,14.13
